sensor_id;sensor_type;location;lat;lon;timestamp;pressure;altitude;pressure_sealevel;temperature;humidity
12172;BME280;6149;52.418;13.668;2023-10-31T00:02:20;99086.84;;;11.18;100.00
12172;BME280;6149;52.418;13.668;2023-10-31T00:04:47;99076.50;;;11.15;100.00
12172;BME280;6149;52.418;13.668;2023-10-31T00:07:14;99085.28;;;11.16;100.00
12172;BME280;6149;52.418;13.668;2023-10-31T00:09:42;99101.16;;;11.16;100.00
12172;BME280;6149;52.418;13.668;2023-10-31T00:12:10;99088.03;;;11.14;100.00
12172;BME280;6149;52.418;13.668;2023-10-31T00:14:37;99089.88;;;11.14;100.00
12172;BME280;6149;52.418;13.668;2023-10-31T00:17:06;99076.66;;;11.14;100.00
12172;BME280;6149;52.418;13.668;2023-10-31T00:19:39;99072.31;;;11.13;100.00
12172;BME280;6149;52.418;13.668;2023-10-31T00:22:07;99079.41;;;11.12;100.00
12172;BME280;6149;52.418;13.668;2023-10-31T00:24:35;99070.38;;;11.15;100.00
12172;BME280;6149;52.418;13.668;2023-10-31T00:27:01;99081.09;;;11.13;100.00
12172;BME280;6149;52.418;13.668;2023-10-31T00:29:29;99059.22;;;11.11;100.00
12172;BME280;6149;52.418;13.668;2023-10-31T00:32:01;99068.00;;;11.12;100.00
12172;BME280;6149;52.418;13.668;2023-10-31T00:34:32;99063.66;;;11.11;100.00
12172;BME280;6149;52.418;13.668;2023-10-31T00:37:03;99062.59;;;11.13;100.00
12172;BME280;6149;52.418;13.668;2023-10-31T00:39:32;99067.03;;;11.13;100.00
12172;BME280;6149;52.418;13.668;2023-10-31T00:42:01;99057.41;;;11.12;100.00
12172;BME280;6149;52.418;13.668;2023-10-31T00:44:31;99057.53;;;11.10;100.00
12172;BME280;6149;52.418;13.668;2023-10-31T00:46:58;99050.44;;;11.11;100.00
12172;BME280;6149;52.418;13.668;2023-10-31T00:49:28;99046.84;;;11.12;100.00
12172;BME280;6149;52.418;13.668;2023-10-31T00:51:58;99047.06;;;11.09;100.00
12172;BME280;6149;52.418;13.668;2023-10-31T00:54:30;99043.47;;;11.10;100.00
12172;BME280;6149;52.418;13.668;2023-10-31T00:56:58;99048.50;;;11.13;100.00
12172;BME280;6149;52.418;13.668;2023-10-31T00:59:26;99045.16;;;11.11;100.00
12172;BME280;6149;52.418;13.668;2023-10-31T01:01:57;99032.03;;;11.09;100.00
12172;BME280;6149;52.418;13.668;2023-10-31T01:04:27;99030.25;;;11.10;100.00
12172;BME280;6149;52.418;13.668;2023-10-31T01:06:54;99023.25;;;11.09;100.00
12172;BME280;6149;52.418;13.668;2023-10-31T01:09:20;99011.84;;;11.08;100.00
12172;BME280;6149;52.418;13.668;2023-10-31T01:11:51;99014.50;;;11.08;100.00
12172;BME280;6149;52.418;13.668;2023-10-31T01:14:17;99012.94;;;11.05;100.00
12172;BME280;6149;52.418;13.668;2023-10-31T01:16:44;98998.88;;;11.05;100.00
12172;BME280;6149;52.418;13.668;2023-10-31T01:19:10;98999.94;;;11.02;100.00
12172;BME280;6149;52.418;13.668;2023-10-31T01:21:37;99010.53;;;11.02;100.00
12172;BME280;6149;52.418;13.668;2023-10-31T01:24:05;99010.53;;;11.02;100.00
12172;BME280;6149;52.418;13.668;2023-10-31T01:26:32;99010.03;;;11.09;100.00
12172;BME280;6149;52.418;13.668;2023-10-31T01:29:07;98986.34;;;11.07;100.00
12172;BME280;6149;52.418;13.668;2023-10-31T01:31:33;98989.59;;;11.11;100.00
12172;BME280;6149;52.418;13.668;2023-10-31T01:34:03;99006.69;;;11.07;100.00
12172;BME280;6149;52.418;13.668;2023-10-31T01:36:30;98993.56;;;11.05;100.00
12172;BME280;6149;52.418;13.668;2023-10-31T01:38:59;98991.06;;;11.03;100.00
12172;BME280;6149;52.418;13.668;2023-10-31T01:41:27;98973.50;;;11.02;100.00
12172;BME280;6149;52.418;13.668;2023-10-31T01:43:56;98971.81;;;11.01;100.00
12172;BME280;6149;52.418;13.668;2023-10-31T01:46:25;98966.66;;;11.00;100.00
12172;BME280;6149;52.418;13.668;2023-10-31T01:48:53;98959.56;;;11.00;100.00
12172;BME280;6149;52.418;13.668;2023-10-31T01:51:23;98959.56;;;11.00;100.00
12172;BME280;6149;52.418;13.668;2023-10-31T01:53:50;98947.31;;;10.99;100.00
12172;BME280;6149;52.418;13.668;2023-10-31T01:56:17;98949.81;;;11.01;100.00
12172;BME280;6149;52.418;13.668;2023-10-31T01:58:48;98963.88;;;11.01;100.00
12172;BME280;6149;52.418;13.668;2023-10-31T02:01:16;98962.09;;;11.02;100.00
12172;BME280;6149;52.418;13.668;2023-10-31T02:03:44;98969.19;;;11.01;100.00
12172;BME280;6149;52.418;13.668;2023-10-31T02:06:14;98963.16;;;10.99;100.00
12172;BME280;6149;52.418;13.668;2023-10-31T02:08:42;98964.84;;;11.00;100.00
12172;BME280;6149;52.418;13.668;2023-10-31T02:11:10;98962.19;;;11.00;100.00
12172;BME280;6149;52.418;13.668;2023-10-31T02:13:38;98955.22;;;10.99;100.00
12172;BME280;6149;52.418;13.668;2023-10-31T02:16:06;98943.81;;;10.99;100.00
12172;BME280;6149;52.418;13.668;2023-10-31T02:18:34;98928.78;;;10.99;100.00
12172;BME280;6149;52.418;13.668;2023-10-31T02:21:07;98922.66;;;10.99;100.00
12172;BME280;6149;52.418;13.668;2023-10-31T02:23:37;98915.56;;;10.99;100.00
12172;BME280;6149;52.418;13.668;2023-10-31T02:26:03;98911.97;;;11.00;100.00
12172;BME280;6149;52.418;13.668;2023-10-31T02:28:32;98911.97;;;11.00;100.00
12172;BME280;6149;52.418;13.668;2023-10-31T02:31:00;98906.66;;;11.00;100.00
12172;BME280;6149;52.418;13.668;2023-10-31T02:33:28;98904.22;;;11.09;100.00
12172;BME280;6149;52.418;13.668;2023-10-31T02:35:56;98900.75;;;11.08;100.00
12172;BME280;6149;52.418;13.668;2023-10-31T02:38:22;98890.53;;;11.03;100.00
12172;BME280;6149;52.418;13.668;2023-10-31T02:40:51;98901.25;;;11.02;100.00
12172;BME280;6149;52.418;13.668;2023-10-31T02:43:18;98886.47;;;10.99;100.00
12172;BME280;6149;52.418;13.668;2023-10-31T02:45:45;98890.09;;;10.98;100.00
12172;BME280;6149;52.418;13.668;2023-10-31T02:48:13;98884.78;;;10.98;100.00
12172;BME280;6149;52.418;13.668;2023-10-31T02:50:40;98887.44;;;10.98;100.00
12172;BME280;6149;52.418;13.668;2023-10-31T02:53:07;98884.78;;;10.98;100.00
12172;BME280;6149;52.418;13.668;2023-10-31T02:55:34;98889.13;;;10.99;100.00
12172;BME280;6149;52.418;13.668;2023-10-31T02:58:07;98882.16;;;10.98;100.00
12172;BME280;6149;52.418;13.668;2023-10-31T03:00:33;98869.63;;;11.00;100.00
12172;BME280;6149;52.418;13.668;2023-10-31T03:03:01;98873.13;;;11.01;100.00
12172;BME280;6149;52.418;13.668;2023-10-31T03:05:28;98878.41;;;11.01;100.00
12172;BME280;6149;52.418;13.668;2023-10-31T03:07:57;98869.63;;;11.00;100.00
12172;BME280;6149;52.418;13.668;2023-10-31T03:10:26;98869.63;;;11.00;100.00
12172;BME280;6149;52.418;13.668;2023-10-31T03:12:53;98869.63;;;11.00;100.00
12172;BME280;6149;52.418;13.668;2023-10-31T03:15:23;98867.84;;;11.01;100.00
12172;BME280;6149;52.418;13.668;2023-10-31T03:17:50;98870.47;;;11.01;100.00
12172;BME280;6149;52.418;13.668;2023-10-31T03:20:19;98861.72;;;11.00;100.00
12172;BME280;6149;52.418;13.668;2023-10-31T03:22:45;98859.06;;;11.00;100.00
12172;BME280;6149;52.418;13.668;2023-10-31T03:25:13;98864.22;;;11.02;100.00
12172;BME280;6149;52.418;13.668;2023-10-31T03:27:41;98864.22;;;11.02;100.00
12172;BME280;6149;52.418;13.668;2023-10-31T03:30:11;98864.94;;;11.04;100.00
12172;BME280;6149;52.418;13.668;2023-10-31T03:32:41;98864.94;;;11.04;100.00
12172;BME280;6149;52.418;13.668;2023-10-31T03:35:09;98872.88;;;11.04;100.00
12172;BME280;6149;52.418;13.668;2023-10-31T03:37:37;98861.31;;;11.05;100.00
12172;BME280;6149;52.418;13.668;2023-10-31T03:40:08;98861.19;;;11.07;100.00
12172;BME280;6149;52.418;13.668;2023-10-31T03:42:37;98866.38;;;11.08;100.00
12172;BME280;6149;52.418;13.668;2023-10-31T03:45:06;98861.91;;;11.09;100.00
12172;BME280;6149;52.418;13.668;2023-10-31T03:47:34;98861.78;;;11.10;100.00
12172;BME280;6149;52.418;13.668;2023-10-31T03:50:05;98864.03;;;11.15;100.00
12172;BME280;6149;52.418;13.668;2023-10-31T03:52:34;98870.31;;;11.14;100.00
12172;BME280;6149;52.418;13.668;2023-10-31T03:55:01;98870.31;;;11.14;100.00
12172;BME280;6149;52.418;13.668;2023-10-31T03:57:30;98873.75;;;11.14;100.00
12172;BME280;6149;52.418;13.668;2023-10-31T04:00:00;98870.16;;;11.15;100.00
12172;BME280;6149;52.418;13.668;2023-10-31T04:02:30;98870.03;;;11.17;100.00
12172;BME280;6149;52.418;13.668;2023-10-31T04:04:56;98872.41;;;11.20;100.00
12172;BME280;6149;52.418;13.668;2023-10-31T04:07:27;98868.81;;;11.21;100.00
12172;BME280;6149;52.418;13.668;2023-10-31T04:09:55;98866.16;;;11.21;100.00
12172;BME280;6149;52.418;13.668;2023-10-31T04:12:22;98858.09;;;11.22;100.00
12172;BME280;6149;52.418;13.668;2023-10-31T04:14:49;98861.59;;;11.23;100.00
12172;BME280;6149;52.418;13.668;2023-10-31T04:17:16;98864.09;;;11.24;100.00
12172;BME280;6149;52.418;13.668;2023-10-31T04:19:44;98864.81;;;11.26;100.00
12172;BME280;6149;52.418;13.668;2023-10-31T04:22:11;98858.69;;;11.26;100.00
12172;BME280;6149;52.418;13.668;2023-10-31T04:24:40;98861.19;;;11.27;100.00
12172;BME280;6149;52.418;13.668;2023-10-31T04:27:08;98858.03;;;11.33;100.00
12172;BME280;6149;52.418;13.668;2023-10-31T04:29:35;98855.53;;;11.32;100.00
12172;BME280;6149;52.418;13.668;2023-10-31T04:32:03;98850.34;;;11.30;100.00
12172;BME280;6149;52.418;13.668;2023-10-31T04:34:32;98851.31;;;11.29;100.00
12172;BME280;6149;52.418;13.668;2023-10-31T04:36:58;98850.34;;;11.30;100.00
12172;BME280;6149;52.418;13.668;2023-10-31T04:39:28;98847.00;;;11.28;100.00
12172;BME280;6149;52.418;13.668;2023-10-31T04:42:04;98850.50;;;11.29;100.00
12172;BME280;6149;52.418;13.668;2023-10-31T04:44:31;98851.59;;;11.26;100.00
12172;BME280;6149;52.418;13.668;2023-10-31T04:46:59;98852.41;;;11.27;100.00
12172;BME280;6149;52.418;13.668;2023-10-31T04:49:28;98857.59;;;11.28;100.00
12172;BME280;6149;52.418;13.668;2023-10-31T04:51:57;98851.59;;;11.26;100.00
12172;BME280;6149;52.418;13.668;2023-10-31T04:54:24;98841.97;;;11.25;100.00
12172;BME280;6149;52.418;13.668;2023-10-31T04:56:51;98845.78;;;11.32;100.00
12172;BME280;6149;52.418;13.668;2023-10-31T04:59:26;98843.38;;;11.29;100.00
12172;BME280;6149;52.418;13.668;2023-10-31T05:01:53;98843.50;;;11.28;100.00
12172;BME280;6149;52.418;13.668;2023-10-31T05:04:20;98843.25;;;11.31;100.00
12172;BME280;6149;52.418;13.668;2023-10-31T05:06:47;98839.91;;;11.29;100.00
12172;BME280;6149;52.418;13.668;2023-10-31T05:09:15;98844.81;;;11.33;100.00
12172;BME280;6149;52.418;13.668;2023-10-31T05:11:44;98854.94;;;11.28;100.00
12172;BME280;6149;52.418;13.668;2023-10-31T05:14:10;98852.16;;;11.30;100.00
12172;BME280;6149;52.418;13.668;2023-10-31T05:16:42;98850.63;;;11.27;100.00
12172;BME280;6149;52.418;13.668;2023-10-31T05:19:10;98847.00;;;11.28;100.00
12172;BME280;6149;52.418;13.668;2023-10-31T05:21:39;98839.19;;;11.27;100.00
12172;BME280;6149;52.418;13.668;2023-10-31T05:24:07;98838.22;;;11.28;100.00
12172;BME280;6149;52.418;13.668;2023-10-31T05:26:35;98840.88;;;11.28;100.00
12172;BME280;6149;52.418;13.668;2023-10-31T05:29:03;98837.00;;;11.32;100.00
12172;BME280;6149;52.418;13.668;2023-10-31T05:31:32;98843.38;;;11.29;100.00
12172;BME280;6149;52.418;13.668;2023-10-31T05:34:02;98844.47;;;11.27;100.00
12172;BME280;6149;52.418;13.668;2023-10-31T05:36:33;98853.84;;;11.31;100.00
12172;BME280;6149;52.418;13.668;2023-10-31T05:39:02;98852.28;;;11.28;100.00
12172;BME280;6149;52.418;13.668;2023-10-31T05:41:34;98851.31;;;11.29;100.00
12172;BME280;6149;52.418;13.668;2023-10-31T05:44:03;98857.47;;;11.30;100.00
12172;BME280;6149;52.418;13.668;2023-10-31T05:46:31;98854.81;;;11.30;100.00
12172;BME280;6149;52.418;13.668;2023-10-31T05:49:01;98851.19;;;11.31;100.00
12172;BME280;6149;52.418;13.668;2023-10-31T05:51:28;98850.94;;;11.34;100.00
12172;BME280;6149;52.418;13.668;2023-10-31T05:53:56;98848.28;;;11.34;100.00
12172;BME280;6149;52.418;13.668;2023-10-31T05:56:24;98856.22;;;11.34;100.00
12172;BME280;6149;52.418;13.668;2023-10-31T05:58:51;98859.59;;;11.36;100.00
12172;BME280;6149;52.418;13.668;2023-10-31T06:01:22;98860.56;;;11.35;100.00
12172;BME280;6149;52.418;13.668;2023-10-31T06:03:50;98865.84;;;11.35;100.00
12172;BME280;6149;52.418;13.668;2023-10-31T06:06:18;98852.75;;;11.33;100.00
12172;BME280;6149;52.418;13.668;2023-10-31T06:08:51;98857.91;;;11.35;100.00
12172;BME280;6149;52.418;13.668;2023-10-31T06:11:21;98865.72;;;11.36;100.00
12172;BME280;6149;52.418;13.668;2023-10-31T06:13:47;98867.41;;;11.37;100.00
12172;BME280;6149;52.418;13.668;2023-10-31T06:16:14;98874.13;;;11.42;100.00
12172;BME280;6149;52.418;13.668;2023-10-31T06:18:44;98874.56;;;11.47;100.00
12172;BME280;6149;52.418;13.668;2023-10-31T06:21:11;98880.44;;;11.50;100.00
12172;BME280;6149;52.418;13.668;2023-10-31T06:23:40;98876.81;;;11.51;100.00
12172;BME280;6149;52.418;13.668;2023-10-31T06:26:09;98883.94;;;11.51;100.00
12172;BME280;6149;52.418;13.668;2023-10-31T06:28:37;98887.38;;;11.51;100.00
12172;BME280;6149;52.418;13.668;2023-10-31T06:31:06;98897.72;;;11.54;100.00
12172;BME280;6149;52.418;13.668;2023-10-31T06:33:35;98905.41;;;11.57;100.00
12172;BME280;6149;52.418;13.668;2023-10-31T06:36:03;98902.38;;;11.62;100.00
12172;BME280;6149;52.418;13.668;2023-10-31T06:38:33;98901.16;;;11.66;100.00
12172;BME280;6149;52.418;13.668;2023-10-31T06:41:09;98901.28;;;11.64;100.00
12172;BME280;6149;52.418;13.668;2023-10-31T06:43:37;98907.59;;;11.73;100.00
12172;BME280;6149;52.418;13.668;2023-10-31T06:46:05;98908.56;;;11.72;100.00
12172;BME280;6149;52.418;13.668;2023-10-31T06:48:33;98904.97;;;11.73;100.00
12172;BME280;6149;52.418;13.668;2023-10-31T06:51:01;98915.91;;;11.80;100.00
12172;BME280;6149;52.418;13.668;2023-10-31T06:53:28;98915.91;;;11.80;100.00
12172;BME280;6149;52.418;13.668;2023-10-31T06:55:57;98919.13;;;11.83;100.00
12172;BME280;6149;52.418;13.668;2023-10-31T06:58:38;98919.44;;;11.90;100.00
12172;BME280;6149;52.418;13.668;2023-10-31T07:01:07;98928.34;;;11.89;100.00
12172;BME280;6149;52.418;13.668;2023-10-31T07:03:37;98929.34;;;11.88;100.00
12172;BME280;6149;52.418;13.668;2023-10-31T07:06:06;98929.06;;;11.91;100.00
12172;BME280;6149;52.418;13.668;2023-10-31T07:08:33;98934.09;;;11.94;100.00
12172;BME280;6149;52.418;13.668;2023-10-31T07:11:01;98933.00;;;11.96;100.00
12172;BME280;6149;52.418;13.668;2023-10-31T07:13:33;98945.31;;;12.07;100.00
12172;BME280;6149;52.418;13.668;2023-10-31T07:16:05;98943.66;;;12.06;100.00
12172;BME280;6149;52.418;13.668;2023-10-31T07:18:33;98952.31;;;12.08;100.00
12172;BME280;6149;52.418;13.668;2023-10-31T07:21:03;98960.00;;;12.11;100.00
12172;BME280;6149;52.418;13.668;2023-10-31T07:23:30;98955.25;;;12.15;100.00
12172;BME280;6149;52.418;13.668;2023-10-31T07:25:58;98948.16;;;12.15;100.00
12172;BME280;6149;52.418;13.668;2023-10-31T07:28:28;98953.47;;;12.15;100.00
12172;BME280;6149;52.418;13.668;2023-10-31T07:30:59;98960.31;;;12.18;100.00
12172;BME280;6149;52.418;13.668;2023-10-31T07:33:35;98964.78;;;12.27;100.00
12172;BME280;6149;52.418;13.668;2023-10-31T07:36:04;98953.34;;;12.26;100.00
12172;BME280;6149;52.418;13.668;2023-10-31T07:38:35;98962.44;;;12.24;100.00
12172;BME280;6149;52.418;13.668;2023-10-31T07:41:04;98972.19;;;12.23;100.00
12172;BME280;6149;52.418;13.668;2023-10-31T07:43:32;98966.06;;;12.23;100.00
12172;BME280;6149;52.418;13.668;2023-10-31T07:46:03;98981.81;;;12.24;100.00
12172;BME280;6149;52.418;13.668;2023-10-31T07:48:32;98989.59;;;12.26;100.00
12172;BME280;6149;52.418;13.668;2023-10-31T07:51:03;98996.06;;;12.33;100.00
12172;BME280;6149;52.418;13.668;2023-10-31T07:53:33;98994.66;;;12.29;100.00
12172;BME280;6149;52.418;13.668;2023-10-31T07:56:01;98996.16;;;12.22;100.00
12172;BME280;6149;52.418;13.668;2023-10-31T07:58:29;99000.69;;;12.10;100.00
12172;BME280;6149;52.418;13.668;2023-10-31T08:00:56;98995.06;;;12.03;100.00
12172;BME280;6149;52.418;13.668;2023-10-31T08:03:24;99012.06;;;12.01;100.00
12172;BME280;6149;52.418;13.668;2023-10-31T08:05:50;99014.34;;;11.85;100.00
12172;BME280;6149;52.418;13.668;2023-10-31T08:08:17;99018.56;;;11.76;100.00
12172;BME280;6149;52.418;13.668;2023-10-31T08:10:46;99019.31;;;11.67;100.00
12172;BME280;6149;52.418;13.668;2023-10-31T08:13:12;99036.19;;;11.66;100.00
12172;BME280;6149;52.418;13.668;2023-10-31T08:15:40;99043.41;;;11.64;100.00
12172;BME280;6149;52.418;13.668;2023-10-31T08:18:08;99049.78;;;11.61;100.00
12172;BME280;6149;52.418;13.668;2023-10-31T08:20:37;99057.34;;;11.66;100.00
12172;BME280;6149;52.418;13.668;2023-10-31T08:23:03;99052.78;;;11.68;100.00
12172;BME280;6149;52.418;13.668;2023-10-31T08:25:31;99068.53;;;11.69;100.00
12172;BME280;6149;52.418;13.668;2023-10-31T08:27:59;99079.84;;;11.71;100.00
12172;BME280;6149;52.418;13.668;2023-10-31T08:30:28;99089.50;;;11.61;100.00
12172;BME280;6149;52.418;13.668;2023-10-31T08:33:00;99094.44;;;11.66;100.00
12172;BME280;6149;52.418;13.668;2023-10-31T08:35:31;99097.19;;;11.64;100.00
12172;BME280;6149;52.418;13.668;2023-10-31T08:38:05;99101.28;;;11.68;100.00
12172;BME280;6149;52.418;13.668;2023-10-31T08:40:34;99118.84;;;11.69;100.00
12172;BME280;6149;52.418;13.668;2023-10-31T08:43:02;99128.97;;;11.64;100.00
12172;BME280;6149;52.418;13.668;2023-10-31T08:45:32;99131.50;;;11.66;100.00
12172;BME280;6149;52.418;13.668;2023-10-31T08:47:59;99131.50;;;11.66;100.00
12172;BME280;6149;52.418;13.668;2023-10-31T08:50:29;99136.66;;;11.67;100.00
12172;BME280;6149;52.418;13.668;2023-10-31T08:52:59;99137.88;;;11.63;100.00
12172;BME280;6149;52.418;13.668;2023-10-31T08:55:28;99135.56;;;11.70;100.00
12172;BME280;6149;52.418;13.668;2023-10-31T08:57:57;99139.31;;;11.67;100.00
12172;BME280;6149;52.418;13.668;2023-10-31T09:00:23;99141.25;;;11.65;100.00
12172;BME280;6149;52.418;13.668;2023-10-31T09:02:52;99160.00;;;11.73;100.00
12172;BME280;6149;52.418;13.668;2023-10-31T09:05:20;99157.25;;;11.75;100.00
12172;BME280;6149;52.418;13.668;2023-10-31T09:07:47;99173.03;;;11.77;100.00
12172;BME280;6149;52.418;13.668;2023-10-31T09:10:15;99176.63;;;11.76;100.00
12172;BME280;6149;52.418;13.668;2023-10-31T09:12:44;99180.09;;;11.76;100.00
12172;BME280;6149;52.418;13.668;2023-10-31T09:15:11;99187.47;;;11.84;100.00
12172;BME280;6149;52.418;13.668;2023-10-31T09:17:40;99196.88;;;11.77;100.00
12172;BME280;6149;52.418;13.668;2023-10-31T09:20:08;99193.47;;;11.86;100.00
12172;BME280;6149;52.418;13.668;2023-10-31T09:22:37;99195.41;;;11.84;100.00
12172;BME280;6149;52.418;13.668;2023-10-31T09:25:04;99178.81;;;11.82;100.00
12172;BME280;6149;52.418;13.668;2023-10-31T09:27:33;99186.88;;;11.80;100.00
12172;BME280;6149;52.418;13.668;2023-10-31T09:30:06;99187.00;;;11.79;100.00
12172;BME280;6149;52.418;13.668;2023-10-31T09:32:35;99209.34;;;11.75;100.00
12172;BME280;6149;52.418;13.668;2023-10-31T09:35:04;99195.63;;;11.69;100.00
12172;BME280;6149;52.418;13.668;2023-10-31T09:37:38;99202.63;;;11.70;100.00
12172;BME280;6149;52.418;13.668;2023-10-31T09:40:07;99207.56;;;11.75;100.00
12172;BME280;6149;52.418;13.668;2023-10-31T09:42:41;99208.66;;;11.84;100.00
12172;BME280;6149;52.418;13.668;2023-10-31T09:45:11;99199.34;;;11.89;100.00
12172;BME280;6149;52.418;13.668;2023-10-31T09:47:39;99227.19;;;11.84;100.00
12172;BME280;6149;52.418;13.668;2023-10-31T09:50:09;99213.72;;;11.87;100.00
12172;BME280;6149;52.418;13.668;2023-10-31T09:52:46;99217.56;;;11.83;100.00
12172;BME280;6149;52.418;13.668;2023-10-31T09:55:14;99214.16;;;11.92;100.00
12172;BME280;6149;52.418;13.668;2023-10-31T09:57:43;99232.94;;;11.89;100.00
12172;BME280;6149;52.418;13.668;2023-10-31T10:00:13;99232.06;;;11.99;100.00
12172;BME280;6149;52.418;13.668;2023-10-31T10:02:42;99220.63;;;11.99;100.00
12172;BME280;6149;52.418;13.668;2023-10-31T10:05:10;99240.97;;;12.10;100.00
12172;BME280;6149;52.418;13.668;2023-10-31T10:07:41;99231.09;;;12.12;100.00
12172;BME280;6149;52.418;13.668;2023-10-31T10:10:10;99231.34;;;12.09;100.00
12172;BME280;6149;52.418;13.668;2023-10-31T10:12:41;99229.88;;;12.16;100.00
12172;BME280;6149;52.418;13.668;2023-10-31T10:15:10;99247.59;;;12.15;100.00
12172;BME280;6149;52.418;13.668;2023-10-31T10:17:48;99248.38;;;12.27;100.00
12172;BME280;6149;52.418;13.668;2023-10-31T10:20:15;99245.84;;;12.25;100.00
12172;BME280;6149;52.418;13.668;2023-10-31T10:22:43;99251.03;;;12.27;100.00
12172;BME280;6149;52.418;13.668;2023-10-31T10:25:10;99247.03;;;12.32;100.00
12172;BME280;6149;52.418;13.668;2023-10-31T10:27:40;99240.75;;;12.33;100.00
12172;BME280;6149;52.418;13.668;2023-10-31T10:30:09;99249.19;;;12.38;100.00
12172;BME280;6149;52.418;13.668;2023-10-31T10:32:38;99254.69;;;12.47;100.00
12172;BME280;6149;52.418;13.668;2023-10-31T10:35:07;99252.19;;;12.45;100.00
12172;BME280;6149;52.418;13.668;2023-10-31T10:37:37;99256.75;;;12.43;100.00
12172;BME280;6149;52.418;13.668;2023-10-31T10:40:06;99253.91;;;12.35;100.00
12172;BME280;6149;52.418;13.668;2023-10-31T10:42:44;99246.53;;;12.38;100.00
12172;BME280;6149;52.418;13.668;2023-10-31T10:45:14;99263.78;;;12.33;100.00
12172;BME280;6149;52.418;13.668;2023-10-31T10:47:46;99257.97;;;12.39;100.00
12172;BME280;6149;52.418;13.668;2023-10-31T10:50:20;99259.66;;;12.40;100.00
12172;BME280;6149;52.418;13.668;2023-10-31T10:53:02;99258.56;;;12.43;100.00
12172;BME280;6149;52.418;13.668;2023-10-31T10:55:39;99264.25;;;12.38;100.00
12172;BME280;6149;52.418;13.668;2023-10-31T10:58:17;99250.84;;;12.51;100.00
12172;BME280;6149;52.418;13.668;2023-10-31T11:00:50;99251.94;;;12.48;100.00
12172;BME280;6149;52.418;13.668;2023-10-31T11:03:19;99255.50;;;12.58;100.00
12172;BME280;6149;52.418;13.668;2023-10-31T11:05:49;99243.81;;;12.61;100.00
12172;BME280;6149;52.418;13.668;2023-10-31T11:08:20;99250.47;;;12.76;100.00
12172;BME280;6149;52.418;13.668;2023-10-31T11:10:55;99248.09;;;12.94;100.00
12172;BME280;6149;52.418;13.668;2023-10-31T11:13:25;99251.31;;;12.97;100.00
12172;BME280;6149;52.418;13.668;2023-10-31T11:15:59;99242.81;;;13.03;100.00
12172;BME280;6149;52.418;13.668;2023-10-31T11:18:33;99242.75;;;13.15;100.00
12172;BME280;6149;52.418;13.668;2023-10-31T11:21:02;99254.09;;;13.17;100.00
12172;BME280;6149;52.418;13.668;2023-10-31T11:23:36;99246.59;;;13.22;100.00
12172;BME280;6149;52.418;13.668;2023-10-31T11:26:07;99250.88;;;13.34;100.00
12172;BME280;6149;52.418;13.668;2023-10-31T11:28:38;99256.16;;;13.34;100.00
12172;BME280;6149;52.418;13.668;2023-10-31T11:31:05;99257.28;;;13.41;100.00
12172;BME280;6149;52.418;13.668;2023-10-31T11:33:39;99249.25;;;13.52;100.00
12172;BME280;6149;52.418;13.668;2023-10-31T11:36:10;99253.25;;;13.67;100.00
12172;BME280;6149;52.418;13.668;2023-10-31T11:38:38;99264.44;;;13.81;100.00
12172;BME280;6149;52.418;13.668;2023-10-31T11:41:05;99262.63;;;13.81;100.00
12172;BME280;6149;52.418;13.668;2023-10-31T11:43:53;99263.72;;;13.69;100.00
12172;BME280;6149;52.418;13.668;2023-10-31T11:46:22;99259.97;;;13.71;100.00
12172;BME280;6149;52.418;13.668;2023-10-31T11:48:52;99273.16;;;13.52;100.00
12172;BME280;6149;52.418;13.668;2023-10-31T11:51:23;99274.06;;;13.42;100.00
12172;BME280;6149;52.418;13.668;2023-10-31T11:53:50;99288.19;;;13.42;100.00
12172;BME280;6149;52.418;13.668;2023-10-31T11:56:16;99278.66;;;13.30;100.00
12172;BME280;6149;52.418;13.668;2023-10-31T11:58:44;99289.59;;;13.16;100.00
12172;BME280;6149;52.418;13.668;2023-10-31T12:01:22;99296.34;;;13.09;100.00
12172;BME280;6149;52.418;13.668;2023-10-31T12:03:49;99297.94;;;13.00;100.00
12172;BME280;6149;52.418;13.668;2023-10-31T12:06:17;99295.97;;;12.92;100.00
12172;BME280;6149;52.418;13.668;2023-10-31T12:08:48;99291.63;;;12.91;100.00
12172;BME280;6149;52.418;13.668;2023-10-31T12:11:16;99286.84;;;12.85;100.00
12172;BME280;6149;52.418;13.668;2023-10-31T12:13:55;99286.63;;;12.77;100.00
12172;BME280;6149;52.418;13.668;2023-10-31T12:16:24;99301.09;;;12.73;100.00
12172;BME280;6149;52.418;13.668;2023-10-31T12:18:55;99295.09;;;12.71;100.00
12172;BME280;6149;52.418;13.668;2023-10-31T12:21:37;99300.66;;;12.68;100.00
12172;BME280;6149;52.418;13.668;2023-10-31T12:24:12;99308.81;;;12.76;100.00
12172;BME280;6149;52.418;13.668;2023-10-31T12:26:41;99303.75;;;12.73;100.00
12172;BME280;6149;52.418;13.668;2023-10-31T12:29:13;99307.59;;;12.80;100.00
12172;BME280;6149;52.418;13.668;2023-10-31T12:31:43;99310.59;;;12.87;100.00
12172;BME280;6149;52.418;13.668;2023-10-31T12:34:12;99307.09;;;12.86;100.00
12172;BME280;6149;52.418;13.668;2023-10-31T12:36:41;99310.97;;;12.82;100.00
12172;BME280;6149;52.418;13.668;2023-10-31T12:39:18;99321.44;;;12.84;100.00
12172;BME280;6149;52.418;13.668;2023-10-31T12:41:48;99331.84;;;12.76;100.00
12172;BME280;6149;52.418;13.668;2023-10-31T12:44:18;99324.50;;;12.68;100.00
12172;BME280;6149;52.418;13.668;2023-10-31T12:46:49;99338.16;;;12.63;100.00
12172;BME280;6149;52.418;13.668;2023-10-31T12:49:19;99345.53;;;12.60;100.00
12172;BME280;6149;52.418;13.668;2023-10-31T12:52:08;99356.59;;;12.65;100.00
12172;BME280;6149;52.418;13.668;2023-10-31T12:54:38;99353.38;;;12.61;100.00
12172;BME280;6149;52.418;13.668;2023-10-31T12:57:07;99349.88;;;12.61;100.00
12172;BME280;6149;52.418;13.668;2023-10-31T12:59:36;99344.16;;;12.65;100.00
12172;BME280;6149;52.418;13.668;2023-10-31T13:02:04;99340.06;;;12.72;100.00